createdAt,value
2023-06-29T00:01:28.633Z,17.90
2023-06-29T00:03:59.663Z,17.92
2023-06-29T00:06:37.923Z,17.92
2023-06-29T00:09:07.735Z,18.00
2023-06-29T00:11:34.480Z,18.01
2023-06-29T00:14:01.084Z,18.01
2023-06-29T00:16:27.663Z,18.01
2023-06-29T00:18:56.311Z,18.05
2023-06-29T00:21:25.932Z,18.08
2023-06-29T00:23:58.194Z,18.08
2023-06-29T00:26:27.771Z,18.08
2023-06-29T00:28:55.367Z,18.08
2023-06-29T00:31:28.448Z,18.03
2023-06-29T00:33:55.101Z,17.99
2023-06-29T00:36:22.016Z,17.98
2023-06-29T00:38:51.582Z,18.03
2023-06-29T00:41:18.111Z,18.05
2023-06-29T00:43:51.064Z,18.05
2023-06-29T00:46:25.735Z,18.09
2023-06-29T00:48:55.366Z,18.09
2023-06-29T00:51:25.441Z,18.11
2023-06-29T00:53:51.939Z,18.11
2023-06-29T00:56:22.364Z,18.14
2023-06-29T00:58:49.721Z,18.13
2023-06-29T01:01:16.308Z,18.17
2023-06-29T01:03:43.444Z,18.16
2023-06-29T01:06:16.076Z,18.14
2023-06-29T01:08:52.605Z,18.16
2023-06-29T01:11:21.362Z,18.12
2023-06-29T01:13:53.967Z,18.09
2023-06-29T01:16:22.416Z,18.10
2023-06-29T01:18:49.383Z,18.11
2023-06-29T01:21:17.148Z,18.16
2023-06-29T01:23:46.380Z,18.21
2023-06-29T01:26:13.254Z,18.20
2023-06-29T01:28:40.149Z,18.23
2023-06-29T01:31:06.758Z,18.22
2023-06-29T01:33:34.293Z,18.21
2023-06-29T01:36:18.048Z,18.24
2023-06-29T01:38:52.880Z,18.24
2023-06-29T01:41:20.969Z,18.22
2023-06-29T01:43:48.356Z,18.27
2023-06-29T01:46:15.370Z,18.26
2023-06-29T01:48:42.630Z,18.20
2023-06-29T01:51:09.989Z,18.19
2023-06-29T01:53:37.694Z,18.24
2023-06-29T01:56:05.070Z,18.26
2023-06-29T01:58:31.650Z,18.23
2023-06-29T02:00:58.279Z,18.24
2023-06-29T02:03:24.911Z,18.31
2023-06-29T02:05:51.580Z,18.36
2023-06-29T02:08:18.120Z,18.35
2023-06-29T02:10:44.781Z,18.31
2023-06-29T02:13:11.271Z,18.24
2023-06-29T02:15:38.002Z,18.21
2023-06-29T02:18:04.604Z,18.19
2023-06-29T02:20:31.153Z,18.19
2023-06-29T02:22:57.628Z,18.20
2023-06-29T02:25:24.193Z,18.19
2023-06-29T02:27:50.693Z,18.20
2023-06-29T02:30:17.282Z,18.18
2023-06-29T02:32:43.845Z,18.20
2023-06-29T02:35:10.647Z,18.20
2023-06-29T02:37:37.143Z,18.24
2023-06-29T02:40:03.981Z,18.26
2023-06-29T02:42:30.542Z,18.31
2023-06-29T02:44:57.050Z,18.35
2023-06-29T02:47:23.555Z,18.32
2023-06-29T02:49:50.121Z,18.28
2023-06-29T02:52:16.644Z,18.29
2023-06-29T02:54:43.163Z,18.25
2023-06-29T02:57:09.672Z,18.23
2023-06-29T02:59:36.235Z,18.26
2023-06-29T03:02:02.789Z,18.29
2023-06-29T03:04:29.417Z,18.29
2023-06-29T03:06:55.958Z,18.33
2023-06-29T03:09:22.596Z,18.33
2023-06-29T03:11:49.086Z,18.32
2023-06-29T03:14:15.606Z,18.33
2023-06-29T03:16:42.831Z,18.37
2023-06-29T03:19:09.373Z,18.39
2023-06-29T03:21:36.176Z,18.39
2023-06-29T03:24:02.700Z,18.34
2023-06-29T03:26:29.397Z,18.27
2023-06-29T03:28:55.934Z,18.25
2023-06-29T03:31:22.579Z,18.23
2023-06-29T03:33:52.220Z,18.19
2023-06-29T03:36:20.291Z,18.18
2023-06-29T03:38:46.911Z,18.19
2023-06-29T03:41:13.437Z,18.14
2023-06-29T03:43:39.930Z,18.08
2023-06-29T03:46:06.469Z,18.03
2023-06-29T03:48:33.034Z,17.97
2023-06-29T03:50:59.625Z,18.03
2023-06-29T03:53:26.185Z,18.10
2023-06-29T03:55:52.727Z,18.09
2023-06-29T03:58:19.389Z,18.08
2023-06-29T04:00:45.913Z,18.17
2023-06-29T04:03:12.789Z,18.26
2023-06-29T04:05:39.533Z,18.33
2023-06-29T04:08:06.459Z,18.29
2023-06-29T04:10:34.292Z,18.24
2023-06-29T04:13:01.056Z,18.20
2023-06-29T04:15:27.643Z,18.20
2023-06-29T04:17:54.400Z,18.31
2023-06-29T04:20:20.998Z,18.35
2023-06-29T04:22:47.515Z,18.30
2023-06-29T04:25:14.069Z,18.22
2023-06-29T04:27:42.161Z,18.17
2023-06-29T04:30:10.090Z,18.19
2023-06-29T04:32:36.615Z,18.30
2023-06-29T04:35:03.577Z,18.41
2023-06-29T04:37:37.823Z,18.46
2023-06-29T04:40:08.250Z,18.53
2023-06-29T04:42:35.036Z,18.47
2023-06-29T04:45:04.506Z,18.48
2023-06-29T04:47:33.479Z,18.48
2023-06-29T04:50:00.158Z,18.48
2023-06-29T04:52:27.879Z,18.46
2023-06-29T04:54:54.396Z,18.41
2023-06-29T04:57:20.948Z,18.46
2023-06-29T04:59:47.495Z,18.60
2023-06-29T05:02:14.151Z,18.59
2023-06-29T05:04:40.685Z,18.59
2023-06-29T05:07:07.533Z,18.64
2023-06-29T05:09:34.088Z,18.67
2023-06-29T05:12:00.725Z,18.63
2023-06-29T05:14:27.731Z,18.60
2023-06-29T05:16:54.418Z,18.63
2023-06-29T05:19:22.118Z,18.68
2023-06-29T05:21:48.655Z,18.73
2023-06-29T05:24:15.951Z,18.71
2023-06-29T05:26:43.890Z,18.76
2023-06-29T05:29:10.423Z,18.75
2023-06-29T05:31:37.029Z,18.78
2023-06-29T05:34:03.624Z,18.82
2023-06-29T05:36:30.563Z,18.90
2023-06-29T05:38:57.242Z,18.87
2023-06-29T05:41:23.760Z,18.83
2023-06-29T05:43:50.283Z,18.83
2023-06-29T05:46:16.833Z,18.90
2023-06-29T05:48:43.453Z,18.99
2023-06-29T05:51:09.981Z,18.96
2023-06-29T05:53:36.556Z,18.93
2023-06-29T05:56:05.862Z,18.94
2023-06-29T05:58:32.411Z,18.99
2023-06-29T06:00:58.992Z,18.99
2023-06-29T06:03:25.624Z,19.12
2023-06-29T06:05:52.252Z,19.11
2023-06-29T06:08:18.906Z,19.16
2023-06-29T06:10:45.807Z,19.20
2023-06-29T06:13:13.923Z,19.26
2023-06-29T06:15:41.321Z,19.32
2023-06-29T06:18:08.001Z,19.34
2023-06-29T06:20:34.564Z,19.36
2023-06-29T06:23:01.082Z,19.36
2023-06-29T06:25:27.603Z,19.36
2023-06-29T06:27:54.302Z,19.32
2023-06-29T06:30:22.503Z,19.40
2023-06-29T06:32:51.150Z,19.42
2023-06-29T06:35:17.761Z,19.46
2023-06-29T06:37:44.391Z,19.58
2023-06-29T06:40:10.980Z,19.56
2023-06-29T06:42:37.947Z,19.59
2023-06-29T06:45:05.415Z,19.73
2023-06-29T06:47:33.013Z,19.80
2023-06-29T06:50:03.759Z,19.88
2023-06-29T06:52:30.461Z,19.99
2023-06-29T06:54:57.337Z,20.14
2023-06-29T06:57:24.335Z,20.23
2023-06-29T06:59:50.933Z,20.25
2023-06-29T07:02:21.405Z,20.31
2023-06-29T07:04:48.289Z,20.38
2023-06-29T07:07:14.915Z,20.45
2023-06-29T07:09:41.528Z,20.44
2023-06-29T07:12:08.541Z,20.52
2023-06-29T07:14:35.176Z,20.59
2023-06-29T07:17:01.814Z,20.66
2023-06-29T07:24:27.408Z,20.90
2023-06-29T07:26:54.017Z,20.94
2023-06-29T07:29:20.786Z,20.99
2023-06-29T07:31:47.350Z,21.13
2023-06-29T07:34:14.197Z,21.32
2023-06-29T07:36:41.280Z,21.48
2023-06-29T07:39:08.175Z,21.53
2023-06-29T07:41:34.732Z,21.49
2023-06-29T07:44:01.517Z,21.47
2023-06-29T07:46:28.564Z,21.35
2023-06-29T07:48:56.041Z,21.28
2023-06-29T07:51:23.930Z,21.32
2023-06-29T07:53:51.490Z,21.50
2023-06-29T07:56:18.691Z,21.74
2023-06-29T07:58:46.108Z,21.80
2023-06-29T08:01:13.245Z,21.73
2023-06-29T08:03:55.813Z,21.62
2023-06-29T08:08:57.335Z,21.83
2023-06-29T08:11:24.281Z,21.76
2023-06-29T08:13:52.221Z,22.18
2023-06-29T08:16:18.889Z,22.63
2023-06-29T08:18:45.581Z,22.84
2023-06-29T08:21:12.429Z,23.16
2023-06-29T08:23:39.018Z,23.26
2023-06-29T08:26:05.884Z,23.34
2023-06-29T08:28:32.459Z,23.18
2023-06-29T08:30:59.026Z,22.90
2023-06-29T08:33:25.882Z,22.94
2023-06-29T08:35:52.849Z,23.09
2023-06-29T08:38:19.567Z,23.45
2023-06-29T08:40:50.420Z,23.48
2023-06-29T08:43:17.359Z,23.54
2023-06-29T08:45:44.592Z,23.55
2023-06-29T08:48:13.456Z,23.50
2023-06-29T08:50:55.447Z,23.77
2023-06-29T08:53:22.281Z,23.73
2023-06-29T08:55:50.063Z,23.72
2023-06-29T08:58:16.715Z,23.50
2023-06-29T09:00:46.997Z,23.47
2023-06-29T09:03:15.303Z,23.41
2023-06-29T09:05:46.649Z,23.44
2023-06-29T09:08:13.474Z,23.53
2023-06-29T09:10:43.550Z,23.52
2023-06-29T09:13:10.941Z,23.43
2023-06-29T09:15:39.452Z,23.37
2023-06-29T09:18:06.893Z,23.20
2023-06-29T09:20:37.318Z,23.20
2023-06-29T09:23:07.047Z,23.15
2023-06-29T09:25:40.617Z,23.19
2023-06-29T09:28:09.027Z,23.27
2023-06-29T09:30:40.458Z,23.21
2023-06-29T09:33:12.748Z,23.13
2023-06-29T09:35:41.812Z,23.09
2023-06-29T09:38:08.494Z,23.13
2023-06-29T09:40:58.232Z,23.13
2023-06-29T09:43:29.674Z,23.08
2023-06-29T09:46:09.710Z,23.16
2023-06-29T09:51:23.300Z,23.28
2023-06-29T09:53:50.558Z,23.37
2023-06-29T09:56:18.035Z,23.24
2023-06-29T09:58:45.021Z,23.25
2023-06-29T10:01:11.991Z,23.29
2023-06-29T10:03:38.576Z,23.37
2023-06-29T10:06:12.305Z,23.32
2023-06-29T10:08:41.316Z,23.39
2023-06-29T10:11:08.053Z,23.60
2023-06-29T10:13:40.609Z,23.60
2023-06-29T10:16:10.471Z,23.72
2023-06-29T10:18:40.668Z,23.75
2023-06-29T10:21:07.952Z,23.93
2023-06-29T10:23:35.757Z,24.04
2023-06-29T10:26:05.401Z,24.06
2023-06-29T10:28:32.402Z,24.03
2023-06-29T10:31:00.873Z,23.85
2023-06-29T10:33:27.658Z,23.69
2023-06-29T10:36:04.515Z,23.59
2023-06-29T10:38:35.830Z,23.65
2023-06-29T10:41:07.301Z,23.67
2023-06-29T10:44:06.007Z,23.60
2023-06-29T10:46:49.681Z,23.40
2023-06-29T10:49:26.590Z,23.33
2023-06-29T10:51:55.571Z,23.18
2023-06-29T10:54:25.743Z,23.19
2023-06-29T10:56:59.302Z,23.34
2023-06-29T10:59:26.933Z,23.49
2023-06-29T11:01:54.580Z,23.65
2023-06-29T11:04:23.290Z,23.77
2023-06-29T11:06:50.209Z,23.91
2023-06-29T11:09:17.156Z,24.12
2023-06-29T11:11:47.263Z,24.27
2023-06-29T11:14:15.124Z,24.14
2023-06-29T11:16:42.107Z,23.86
2023-06-29T11:19:11.030Z,23.66
2023-06-29T11:21:41.690Z,23.68
2023-06-29T11:24:10.652Z,23.77
2023-06-29T11:26:37.416Z,23.96
2023-06-29T11:29:07.266Z,24.04
2023-06-29T11:31:33.878Z,24.16
2023-06-29T11:34:01.369Z,24.15
2023-06-29T11:36:37.979Z,24.17
2023-06-29T11:39:12.251Z,24.04
2023-06-29T11:41:39.899Z,24.07
2023-06-29T11:46:34.699Z,24.10
2023-06-29T11:49:05.703Z,23.95
2023-06-29T11:51:39.723Z,23.82
2023-06-29T11:54:10.050Z,23.83
2023-06-29T11:56:41.899Z,23.96
2023-06-29T11:59:11.543Z,23.95
2023-06-29T12:01:41.223Z,23.95
2023-06-29T12:04:15.810Z,23.78
2023-06-29T12:06:51.877Z,23.73
2023-06-29T12:09:19.026Z,23.75
2023-06-29T12:11:45.744Z,23.69
2023-06-29T12:14:12.571Z,23.72
2023-06-29T12:19:14.124Z,23.74
2023-06-29T12:21:42.029Z,23.73
2023-06-29T12:24:09.003Z,23.76
2023-06-29T12:26:35.552Z,23.85
2023-06-29T12:29:02.098Z,23.77
2023-06-29T12:31:29.430Z,23.71
2023-06-29T12:33:57.651Z,23.75
2023-06-29T12:36:24.202Z,23.85
2023-06-29T12:38:51.359Z,23.73
2023-06-29T12:41:18.963Z,23.77
2023-06-29T12:43:45.599Z,23.77
2023-06-29T12:46:12.797Z,23.94
2023-06-29T12:48:39.661Z,23.99
2023-06-29T12:51:06.907Z,23.87
2023-06-29T12:53:33.846Z,23.74
2023-06-29T12:56:01.584Z,23.72
2023-06-29T12:58:28.390Z,23.77
2023-06-29T13:00:55.224Z,23.89
2023-06-29T13:03:22.142Z,24.00
2023-06-29T13:05:51.174Z,24.00
2023-06-29T13:08:17.973Z,24.02
2023-06-29T13:10:45.616Z,23.96
2023-06-29T13:13:12.149Z,23.89
2023-06-29T13:15:38.774Z,23.80
2023-06-29T13:18:05.384Z,23.63
2023-06-29T13:20:31.977Z,23.44
2023-06-29T13:22:58.513Z,23.41
2023-06-29T13:25:25.116Z,23.45
2023-06-29T13:27:51.633Z,23.50
2023-06-29T13:30:19.866Z,23.61
2023-06-29T13:32:46.427Z,23.66
2023-06-29T13:35:13.021Z,23.63
2023-06-29T13:37:39.560Z,23.58
2023-06-29T13:40:06.718Z,23.54
2023-06-29T13:42:33.281Z,23.49
2023-06-29T13:44:59.815Z,23.43
2023-06-29T13:47:27.134Z,23.41
2023-06-29T13:49:53.754Z,23.43
2023-06-29T13:52:20.318Z,23.36
2023-06-29T13:54:46.922Z,23.25
2023-06-29T13:57:15.483Z,23.14
2023-06-29T13:59:42.079Z,23.12
2023-06-29T14:02:08.761Z,23.00
2023-06-29T14:04:35.400Z,22.89
2023-06-29T14:07:02.032Z,22.84
2023-06-29T14:09:28.863Z,22.85
2023-06-29T14:11:55.610Z,22.93
2023-06-29T14:14:22.124Z,22.99
2023-06-29T14:16:48.712Z,22.93
2023-06-29T14:19:15.240Z,22.93
2023-06-29T14:21:43.558Z,23.02
2023-06-29T14:24:10.961Z,23.05
2023-06-29T14:26:37.636Z,23.05
2023-06-29T14:29:04.278Z,23.11
2023-06-29T14:31:30.835Z,23.02
2023-06-29T14:33:59.416Z,23.01
2023-06-29T14:36:26.225Z,23.09
2023-06-29T14:38:53.136Z,23.07
2023-06-29T14:41:20.888Z,23.07
2023-06-29T14:43:47.478Z,23.04
2023-06-29T14:46:14.017Z,23.13
2023-06-29T14:48:40.604Z,23.02
2023-06-29T14:51:07.156Z,23.02
2023-06-29T14:53:33.710Z,22.91
2023-06-29T14:56:10.787Z,22.79
2023-06-29T14:58:37.947Z,22.81
2023-06-29T15:01:05.079Z,22.80
2023-06-29T15:03:35.043Z,22.78
2023-06-29T15:06:01.642Z,22.80
2023-06-29T15:08:28.234Z,22.90
2023-06-29T15:10:54.911Z,22.86
2023-06-29T15:13:21.507Z,22.86
2023-06-29T15:15:48.234Z,22.87
2023-06-29T15:18:15.124Z,22.83
2023-06-29T15:20:42.060Z,22.79
2023-06-29T15:23:08.676Z,22.74
2023-06-29T15:25:37.045Z,22.76
2023-06-29T15:28:04.418Z,22.81
2023-06-29T15:30:31.921Z,22.85
2023-06-29T15:33:01.359Z,22.89
2023-06-29T15:35:27.905Z,22.85
2023-06-29T15:37:54.663Z,22.80
2023-06-29T15:40:21.808Z,22.81
2023-06-29T15:42:48.340Z,22.74
2023-06-29T15:45:18.016Z,22.78
2023-06-29T15:47:44.810Z,22.77
2023-06-29T15:50:11.465Z,22.75
2023-06-29T15:52:39.912Z,22.74
2023-06-29T15:55:07.751Z,22.76
2023-06-29T15:57:34.364Z,22.81
2023-06-29T16:00:01.669Z,22.78
2023-06-29T16:02:31.565Z,22.74
2023-06-29T16:04:58.196Z,22.73
2023-06-29T16:07:25.507Z,22.69
2023-06-29T16:09:52.160Z,22.57
2023-06-29T16:12:18.746Z,22.55
2023-06-29T16:14:45.373Z,22.49
2023-06-29T16:17:12.186Z,22.51
2023-06-29T16:19:38.842Z,22.51
2023-06-29T16:22:05.402Z,22.48
2023-06-29T16:24:32.129Z,22.46
2023-06-29T16:26:58.800Z,22.44
2023-06-29T16:29:25.437Z,22.48
2023-06-29T16:31:52.260Z,22.51
2023-06-29T16:34:18.904Z,22.57
2023-06-29T16:36:45.476Z,22.62
2023-06-29T16:39:12.226Z,22.65
2023-06-29T16:41:40.590Z,22.66
2023-06-29T16:44:07.218Z,22.68
2023-06-29T16:46:34.685Z,22.67
2023-06-29T16:49:01.808Z,22.64
2023-06-29T16:51:29.556Z,22.63
2023-06-29T16:53:57.337Z,22.61
2023-06-29T16:56:24.179Z,22.60
2023-06-29T16:58:50.795Z,22.59
2023-06-29T17:01:18.408Z,22.58
2023-06-29T17:03:45.222Z,22.56
2023-06-29T17:06:11.903Z,22.59
2023-06-29T17:08:41.036Z,22.55
2023-06-29T17:11:08.333Z,22.53
2023-06-29T17:13:35.352Z,22.50
2023-06-29T17:16:02.425Z,22.48
2023-06-29T17:18:29.006Z,22.50
2023-06-29T17:20:55.613Z,22.51
2023-06-29T17:23:22.246Z,22.46
2023-06-29T17:25:52.137Z,22.43
2023-06-29T17:28:19.908Z,22.40
2023-06-29T17:30:46.607Z,22.35
2023-06-29T17:33:15.042Z,22.27
2023-06-29T17:35:42.709Z,22.21
2023-06-29T17:38:09.837Z,22.15
2023-06-29T17:40:39.448Z,22.12
2023-06-29T17:43:06.052Z,22.12
2023-06-29T17:45:32.890Z,22.08
2023-06-29T17:47:59.556Z,22.05
2023-06-29T17:50:26.113Z,22.05
2023-06-29T17:52:52.686Z,22.07
2023-06-29T17:55:19.436Z,22.07
2023-06-29T17:57:46.024Z,22.03
2023-06-29T18:00:14.076Z,22.00
2023-06-29T18:02:40.871Z,21.98
2023-06-29T18:05:08.733Z,21.99
2023-06-29T18:07:35.602Z,22.00
2023-06-29T18:10:06.114Z,21.99
2023-06-29T18:12:32.660Z,21.99
2023-06-29T18:14:59.198Z,21.97
2023-06-29T18:17:25.850Z,21.94
2023-06-29T18:19:52.489Z,21.91
2023-06-29T18:22:18.987Z,21.85
2023-06-29T18:24:45.513Z,21.79
2023-06-29T18:27:12.058Z,21.76
2023-06-29T18:29:38.616Z,21.76
2023-06-29T18:32:05.732Z,21.73
2023-06-29T18:34:32.326Z,21.70
2023-06-29T18:36:58.867Z,21.67
2023-06-29T18:39:25.353Z,21.64
2023-06-29T18:41:54.567Z,21.60
2023-06-29T18:44:21.049Z,21.56
2023-06-29T18:47:07.626Z,21.56
2023-06-29T18:49:49.956Z,21.52
2023-06-29T18:52:17.768Z,21.51
2023-06-29T18:54:44.678Z,21.45
2023-06-29T18:57:11.761Z,21.43
2023-06-29T18:59:39.465Z,21.39
2023-06-29T19:02:06.177Z,21.33
2023-06-29T19:04:32.786Z,21.24
2023-06-29T19:06:59.453Z,21.24
2023-06-29T19:09:26.579Z,21.20
2023-06-29T19:11:53.089Z,21.22
2023-06-29T19:14:19.636Z,21.16
2023-06-29T19:16:46.280Z,21.13
2023-06-29T19:19:13.326Z,21.10
2023-06-29T19:21:48.625Z,21.08
2023-06-29T19:24:16.542Z,21.04
2023-06-29T19:26:43.154Z,21.00
2023-06-29T19:29:11.273Z,20.98
2023-06-29T19:31:38.050Z,20.93
2023-06-29T19:34:06.641Z,20.88
2023-06-29T19:36:33.186Z,20.87
2023-06-29T19:39:01.238Z,20.83
2023-06-29T19:41:28.957Z,20.87
2023-06-29T19:43:55.505Z,20.86
2023-06-29T19:46:22.250Z,20.82
2023-06-29T19:48:48.892Z,20.78
2023-06-29T19:51:15.664Z,20.76
2023-06-29T19:53:42.251Z,20.74
2023-06-29T19:56:08.796Z,20.69
2023-06-29T19:58:35.380Z,20.55
2023-06-29T20:01:03.175Z,20.46
2023-06-29T20:03:31.442Z,20.38
2023-06-29T20:05:58.053Z,20.35
2023-06-29T20:08:24.620Z,20.43
2023-06-29T20:10:51.304Z,20.46
2023-06-29T20:13:17.913Z,20.37
2023-06-29T20:15:45.509Z,20.33
2023-06-29T20:18:12.375Z,20.38
2023-06-29T20:20:38.901Z,20.39
2023-06-29T20:23:05.499Z,20.49
2023-06-29T20:25:31.986Z,20.51
2023-06-29T20:27:58.552Z,20.52
2023-06-29T20:30:25.064Z,20.42
2023-06-29T20:32:51.767Z,20.40
2023-06-29T20:35:18.350Z,20.34
2023-06-29T20:37:44.904Z,20.33
2023-06-29T20:40:11.923Z,20.30
2023-06-29T20:42:39.011Z,20.29
2023-06-29T20:45:10.346Z,20.39
2023-06-29T20:47:37.086Z,20.39
2023-06-29T20:50:03.878Z,20.35
2023-06-29T20:52:30.375Z,20.26
2023-06-29T20:54:56.948Z,20.23
2023-06-29T20:57:23.913Z,20.26
2023-06-29T20:59:50.764Z,20.19
2023-06-29T21:02:18.460Z,20.13
2023-06-29T21:04:45.512Z,20.06
2023-06-29T21:07:12.176Z,20.06
2023-06-29T21:09:38.820Z,20.02
2023-06-29T21:12:05.771Z,19.98
2023-06-29T21:14:32.691Z,20.00
2023-06-29T21:17:02.073Z,20.02
2023-06-29T21:19:28.893Z,19.99
2023-06-29T21:21:55.682Z,19.93
2023-06-29T21:24:22.424Z,19.85
2023-06-29T21:26:49.355Z,19.84
2023-06-29T21:29:33.985Z,19.90
2023-06-29T21:32:03.973Z,19.81
2023-06-29T21:34:34.346Z,19.76
2023-06-29T21:37:01.213Z,19.72
2023-06-29T21:39:27.717Z,19.78
2023-06-29T21:41:54.336Z,19.81
2023-06-29T21:44:20.935Z,19.75
2023-06-29T21:46:47.515Z,19.66
2023-06-29T21:49:15.063Z,19.59
2023-06-29T21:51:41.754Z,19.51
2023-06-29T21:54:10.661Z,19.47
2023-06-29T21:56:39.112Z,19.47
2023-06-29T21:59:05.715Z,19.47
2023-06-29T22:01:32.210Z,19.46
2023-06-29T22:03:59.148Z,19.47
2023-06-29T22:06:25.772Z,19.48
2023-06-29T22:08:52.674Z,19.50
2023-06-29T22:11:20.925Z,19.54
2023-06-29T22:13:49.269Z,19.58
2023-06-29T22:16:16.371Z,19.65
2023-06-29T22:18:42.984Z,19.69
2023-06-29T22:21:09.523Z,19.76
2023-06-29T22:23:36.026Z,19.79
2023-06-29T22:26:02.552Z,19.79
2023-06-29T22:28:29.281Z,19.80
2023-06-29T22:30:55.884Z,19.84
2023-06-29T22:33:22.398Z,19.81
2023-06-29T22:35:49.360Z,19.79
2023-06-29T22:38:16.212Z,19.73
2023-06-29T22:40:42.807Z,19.71
2023-06-29T22:43:09.290Z,19.72
2023-06-29T22:45:35.916Z,19.72
2023-06-29T22:48:03.137Z,19.77
2023-06-29T22:50:30.105Z,19.76
2023-06-29T22:52:56.732Z,19.74
2023-06-29T22:55:23.439Z,19.73
2023-06-29T22:57:50.215Z,19.70
2023-06-29T23:00:16.947Z,19.68
2023-06-29T23:02:43.618Z,19.65
2023-06-29T23:05:10.902Z,19.66
2023-06-29T23:07:44.957Z,19.65
2023-06-29T23:10:13.661Z,19.71
2023-06-29T23:12:46.480Z,19.75
2023-06-29T23:15:16.846Z,19.74
2023-06-29T23:17:44.468Z,19.76
2023-06-29T23:20:14.354Z,19.83
2023-06-29T23:22:42.312Z,19.70
2023-06-29T23:25:09.199Z,19.61
2023-06-29T23:27:42.804Z,19.60
2023-06-29T23:30:12.526Z,19.64
2023-06-29T23:32:43.314Z,19.55
2023-06-29T23:35:10.390Z,19.55
2023-06-29T23:37:37.581Z,19.54
2023-06-29T23:40:10.207Z,19.64
2023-06-29T23:42:40.443Z,19.61
2023-06-29T23:45:11.115Z,19.74
2023-06-29T23:47:39.574Z,19.89
2023-06-29T23:50:12.111Z,19.92
2023-06-29T23:52:42.231Z,19.94
2023-06-29T23:55:12.359Z,19.90
2023-06-29T23:57:40.205Z,19.82
